Weather History for KESC - December, 2011

Change the Weather History Date:

Monday, December 26, 2011

  Actual Average Record
Temperature  
Mean Temperature 34 °F -  
Max Temperature 39 °F 22 °F 39 °F (2011)
Min Temperature 28 °F 7 °F -14 °F (1990)
Degree Days  
Heating Degree Days 32    
Moisture  
Dew Point 23 °F    
Average Humidity 63    
Maximum Humidity 69    
Minimum Humidity 52    
Precipitation  
Precipitation 0.00 in - - ()
Sea Level Pressure  
Sea Level Pressure 29.90 in    
Wind  
Wind Speed 11 mph (SSW)    
Max Wind Speed 25 mph    
Max Gust Speed 36 mph    
Visibility 10 miles    
Events      
Averages and records for this station are not official NWS values.
T = Trace of Precipitation, MM = Missing Value Source: NWS Daily Summary

Daily Weather History Graph

Daily Weather History Graph

Search for Another Location

Airport or City:

Trip Planner

Search our weather history database for the weather conditions in past years. The results will help you decide how hot, cold, wet, or windy it might be!

Date:

Astronomy

Dec. 26, 2011 Rise Set
Actual Time 8:28 AM EST 5:09 PM EST
Civil Twilight 7:53 AM EST 5:44 PM EST
Nautical Twilight 7:16 AM EST 6:21 PM EST
Astronomical Twilight 6:39 AM EST 6:58 PM EST
Moon 9:42 AM EST (12/26) 7:43 PM EST (12/26)
Length of Visible Light 9h 50m
Length of Day
8h 41m
Waxing Crescent, 5% of the Moon is Illuminated
Dec 26
Waxing Crescent
Jan 1
First Quarter
Jan 9
Full
Jan 16
Last Quarter
Jan 23
New

Hourly Weather History & Observations

Time (EST) Temp. Windchill Dew Point Humidity Pressure Visibility Wind Dir Wind Speed Gust Speed Precip Events Conditions
12:15 AM 33.8 °F 29.6 °F 21.2 °F 60% 30.18 in 10.0 mi WSW 4.6 mph - N/A   Overcast
12:55 AM 33.8 °F 30.8 °F 21.2 °F 60% 30.16 in 10.0 mi WSW 3.5 mph - N/A   Overcast
1:15 AM 33.8 °F 28.6 °F 21.2 °F 60% 30.17 in 10.0 mi WSW 5.8 mph - N/A   Overcast
1:35 AM 33.8 °F 28.6 °F 21.2 °F 60% 30.16 in 10.0 mi SW 5.8 mph - N/A   Overcast
1:55 AM 33.8 °F 27.7 °F 21.2 °F 60% 30.16 in 10.0 mi SW 6.9 mph - N/A   Overcast
2:15 AM 33.8 °F 27.0 °F 21.2 °F 60% 30.16 in 10.0 mi SW 8.1 mph - N/A   Overcast
2:55 AM 33.8 °F 27.0 °F 19.4 °F 56% 30.15 in 10.0 mi SSW 8.1 mph - N/A   Overcast
3:35 AM 32.0 °F 25.6 °F 19.4 °F 60% 30.14 in 10.0 mi SSW 6.9 mph - N/A   Partly Cloudy
3:55 AM 30.2 °F 23.4 °F 21.2 °F 69% 30.14 in 10.0 mi SSW 6.9 mph - N/A   Clear
4:15 AM 30.2 °F 21.9 °F 19.4 °F 64% 30.14 in 10.0 mi SW 9.2 mph - N/A   Clear
4:55 AM 30.2 °F 21.3 °F 19.4 °F 64% 30.12 in 10.0 mi SW 10.4 mph - N/A   Clear
5:15 AM 30.2 °F 22.6 °F 19.4 °F 64% 30.12 in 10.0 mi SW 8.1 mph - N/A   Clear
5:35 AM 30.2 °F 21.9 °F 19.4 °F 64% 30.11 in 10.0 mi SW 9.2 mph - N/A   Clear
5:55 AM 30.2 °F 21.9 °F 19.4 °F 64% 30.10 in 10.0 mi SSW 9.2 mph - N/A   Clear
6:35 AM 30.2 °F 21.9 °F 19.4 °F 64% 30.09 in 10.0 mi SW 9.2 mph - N/A   Clear
6:55 AM 30.2 °F 20.8 °F 19.4 °F 64% 30.08 in 10.0 mi SW 11.5 mph - N/A   Clear
7:15 AM 30.2 °F 20.8 °F 19.4 °F 64% 30.07 in 10.0 mi SSW 11.5 mph - N/A   Clear
7:35 AM 28.4 °F 19.1 °F 19.4 °F 69% 30.06 in 10.0 mi SW 10.4 mph - N/A   Clear
7:55 AM 28.4 °F 18.5 °F 19.4 °F 69% 30.05 in 10.0 mi SW 11.5 mph - N/A   Clear
8:35 AM 30.2 °F 21.9 °F 19.4 °F 64% 30.04 in 10.0 mi SSW 9.2 mph - N/A   Clear
8:55 AM 30.2 °F 21.3 °F 19.4 °F 64% 30.03 in 10.0 mi SSW 10.4 mph - N/A   Clear
9:15 AM 30.2 °F 21.9 °F 19.4 °F 64% 30.03 in 10.0 mi SSW 9.2 mph - N/A   Clear
9:35 AM 30.2 °F 20.2 °F 19.4 °F 64% 30.03 in 10.0 mi SW 12.7 mph 17.3 mph N/A   Clear
9:55 AM 32.0 °F 23.0 °F 19.4 °F 60% 30.03 in 10.0 mi SW 11.5 mph 17.3 mph N/A   Clear
10:35 AM 33.8 °F 25.8 °F 21.2 °F 60% 30.01 in 10.0 mi SSW 10.4 mph 16.1 mph N/A   Clear
10:55 AM 35.6 °F 27.1 °F 21.2 °F 56% 29.99 in 10.0 mi SW 12.7 mph 19.6 mph N/A   Clear
11:15 AM 35.6 °F 26.2 °F 21.2 °F 56% 29.98 in 10.0 mi SW 15.0 mph 23.0 mph N/A   Clear
11:35 AM 37.4 °F 28.9 °F 21.2 °F 52% 29.97 in 10.0 mi SSW 13.8 mph 23.0 mph N/A   Clear
11:55 AM 37.4 °F 28.5 °F 21.2 °F 52% 29.94 in 10.0 mi SSW 15.0 mph 21.9 mph N/A   Clear
12:55 PM 35.6 °F 25.9 °F 24.8 °F 65% 29.89 in 10.0 mi SSW 16.1 mph 31.1 mph N/A   Clear
1:15 PM 35.6 °F 24.2 °F 24.8 °F 65% 29.86 in 10.0 mi SSW 21.9 mph 29.9 mph N/A   Clear
1:35 PM 37.4 °F 27.5 °F 26.6 °F 65% 29.85 in 10.0 mi South 18.4 mph 27.6 mph N/A   Clear
1:55 PM 37.4 °F 27.8 °F 24.8 °F 60% 29.83 in 10.0 mi SSW 17.3 mph 29.9 mph N/A   Clear
2:15 PM 37.4 °F 26.6 °F 26.6 °F 65% 29.81 in 10.0 mi SSW 21.9 mph 27.6 mph N/A   Clear
2:55 PM 37.4 °F 27.5 °F 24.8 °F 60% 29.78 in 10.0 mi SSW 18.4 mph 31.1 mph N/A   Clear
3:15 PM 37.4 °F 26.9 °F 26.6 °F 65% 29.76 in 10.0 mi SSW 20.7 mph 33.4 mph N/A   Clear
3:35 PM 37.4 °F 26.1 °F 26.6 °F 65% 29.75 in 10.0 mi South 24.2 mph 32.2 mph N/A   Clear
3:55 PM 37.4 °F 26.9 °F 26.6 °F 65% 29.75 in 10.0 mi SSW 20.7 mph 34.5 mph N/A   Clear
4:55 PM 37.4 °F 26.1 °F 26.6 °F 65% 29.72 in 10.0 mi SSW 24.2 mph 34.5 mph N/A   Clear
5:15 PM 37.4 °F 25.9 °F 26.6 °F 65% 29.72 in 10.0 mi SSW 25.3 mph 33.4 mph N/A   Clear
5:35 PM 37.4 °F 26.9 °F 26.6 °F 65% 29.71 in 10.0 mi SSW 20.7 mph 29.9 mph N/A   Clear
5:55 PM 37.4 °F 26.9 °F 26.6 °F 65% 29.70 in 10.0 mi SSW 20.7 mph 33.4 mph N/A   Clear
6:35 PM 37.4 °F 26.9 °F 26.6 °F 65% 29.70 in 10.0 mi SSW 20.7 mph 34.5 mph N/A   Clear
6:55 PM 37.4 °F 25.9 °F 26.6 °F 65% 29.70 in 10.0 mi SSW 25.3 mph 35.7 mph N/A   Clear
7:15 PM 37.4 °F 27.2 °F 26.6 °F 65% 29.70 in 10.0 mi SSW 19.6 mph 34.5 mph N/A   Clear
7:35 PM 37.4 °F 27.2 °F 26.6 °F 65% 29.69 in 10.0 mi SSW 19.6 mph 27.6 mph N/A   Clear
7:55 PM 37.4 °F 27.2 °F 26.6 °F 65% 29.68 in 10.0 mi SSW 19.6 mph 26.5 mph N/A   Clear
8:15 PM 37.4 °F 27.8 °F 26.6 °F 65% 29.68 in 10.0 mi SSW 17.3 mph 23.0 mph N/A   Scattered Clouds
9:15 PM 37.4 °F 29.8 °F 26.6 °F 65% 29.65 in 10.0 mi SSW 11.5 mph - N/A   Scattered Clouds
9:35 PM 37.4 °F 30.8 °F 26.6 °F 65% 29.65 in 10.0 mi SSW 9.2 mph 17.3 mph N/A   Scattered Clouds
9:55 PM 37.4 °F 30.3 °F 24.8 °F 60% 29.65 in 10.0 mi SSW 10.4 mph - N/A   Overcast
10:15 PM 37.4 °F 29.8 °F 24.8 °F 60% 29.65 in 10.0 mi SSW 11.5 mph - N/A   Overcast
10:35 PM 37.4 °F 30.3 °F 24.8 °F 60% 29.63 in 10.0 mi SSW 10.4 mph - N/A   Overcast
10:55 PM 37.4 °F 30.8 °F 24.8 °F 60% 29.62 in 10.0 mi SSW 9.2 mph - N/A   Overcast
11:15 PM 39.2 °F 34.2 °F 24.8 °F 56% 29.61 in 10.0 mi South 6.9 mph - N/A   Overcast
11:35 PM 37.4 °F 31.4 °F 24.8 °F 60% 29.61 in 10.0 mi SSW 8.1 mph - N/A   Overcast
11:55 PM 37.4 °F 30.3 °F 26.6 °F 65% 29.61 in 10.0 mi SSW 10.4 mph - N/A   Overcast